Time;durP1;ratioP1;P1;durP2;ratioP2;P2;SDS_P1;SDS_P2;PMS_P1;PMS_P2;Temp;Humidity;BMP_temperature;BMP_pressure;BME280_temperature;BME280_humidity;BME280_pressure;Samples;Min_cycle;Max_cycle;Signal;HPM_P1;HPM_P2
2023/08/14 00:01:56;;;;;;;13.80;1.10;;;;;;;;;;5088965;28;20406;-83
2023/08/14 00:04:23;;;;;;;13.80;1.30;;;;;;;;;;5070865;28;20813;-83
2023/08/14 00:06:49;;;;;;;12.43;1.10;;;;;;;;;;5085523;28;20191;-83
2023/08/14 00:09:17;;;;;;;13.60;1.10;;;;;;;;;;5084944;28;20467;-83
2023/08/14 00:11:44;;;;;;;14.80;1.40;;;;;;;;;;5079440;28;20407;-83
2023/08/14 00:14:11;;;;;;;13.30;1.15;;;;;;;;;;5079219;28;20991;-84
2023/08/14 00:16:37;;;;;;;12.60;1.23;;;;;;;;;;5080236;28;20832;-83
2023/08/14 00:19:04;;;;;;;13.52;1.00;;;;;;;;;;5081480;28;20412;-83
2023/08/14 00:21:31;;;;;;;12.43;0.90;;;;;;;;;;5066294;28;20217;-83
2023/08/14 00:23:58;;;;;;;12.57;1.10;;;;;;;;;;5073787;28;20478;-83
2023/08/14 00:26:26;;;;;;;12.43;1.10;;;;;;;;;;5081001;28;20788;-83
2023/08/14 00:28:52;;;;;;;12.57;1.20;;;;;;;;;;5081766;28;20480;-84
2023/08/14 00:31:19;;;;;;;13.23;1.20;;;;;;;;;;5066936;28;20488;-84
2023/08/14 00:33:46;;;;;;;12.60;1.10;;;;;;;;;;5082908;28;20914;-83
2023/08/14 00:36:13;;;;;;;15.20;1.30;;;;;;;;;;5061679;28;20403;-84
2023/08/14 00:38:39;;;;;;;13.20;1.47;;;;;;;;;;5061327;28;20469;-83
2023/08/14 00:41:06;;;;;;;12.23;0.90;;;;;;;;;;5072866;28;20450;-83
2023/08/14 00:43:34;;;;;;;13.20;1.37;;;;;;;;;;5069414;28;20484;-83
2023/08/14 00:46:01;;;;;;;12.63;1.27;;;;;;;;;;5082031;28;20953;-83
2023/08/14 00:48:28;;;;;;;13.50;1.30;;;;;;;;;;5081523;28;20520;-84
2023/08/14 00:50:55;;;;;;;12.47;1.10;;;;;;;;;;5067154;28;20855;-83
2023/08/14 00:53:23;;;;;;;12.47;1.20;;;;;;;;;;5067927;28;20459;-84
2023/08/14 00:55:50;;;;;;;12.60;1.27;;;;;;;;;;5066424;28;20452;-83
2023/08/14 00:58:17;;;;;;;12.50;1.17;;;;;;;;;;5085639;28;20972;-84
2023/08/14 01:00:46;;;;;;;12.33;1.10;;;;;;;;;;5089509;28;20512;-84
2023/08/14 01:03:13;;;;;;;12.40;1.10;;;;;;;;;;5067530;28;20449;-83
2023/08/14 01:05:40;;;;;;;13.50;1.10;;;;;;;;;;5070367;28;21014;-83
2023/08/14 01:08:06;;;;;;;14.20;1.70;;;;;;;;;;5084744;28;20398;-83
2023/08/14 01:10:38;;;;;;;12.60;1.10;;;;;;;;;;5080059;28;20209;-83
2023/08/14 01:13:08;;;;;;;12.70;1.40;;;;;;;;;;5081128;28;20434;-83
2023/08/14 01:15:38;;;;;;;12.90;1.20;;;;;;;;;;5070092;28;20449;-84
2023/08/14 01:18:06;;;;;;;12.67;1.00;;;;;;;;;;5090997;28;20452;-83
2023/08/14 01:20:35;;;;;;;12.47;1.00;;;;;;;;;;5068009;28;20529;-83
2023/08/14 01:23:05;;;;;;;12.53;0.90;;;;;;;;;;5082255;28;20522;-83
2023/08/14 01:25:34;;;;;;;12.60;1.10;;;;;;;;;;5083309;28;20433;-83
2023/08/14 01:28:01;;;;;;;12.43;1.03;;;;;;;;;;5085314;28;20438;-84
2023/08/14 01:30:28;;;;;;;13.80;1.20;;;;;;;;;;5078314;28;20404;-83
2023/08/14 01:32:55;;;;;;;14.48;1.10;;;;;;;;;;5066983;28;20515;-83
2023/08/14 01:35:24;;;;;;;13.90;1.20;;;;;;;;;;5067514;28;20410;-83
2023/08/14 01:37:54;;;;;;;13.60;1.10;;;;;;;;;;5079523;28;20407;-83
2023/08/14 01:40:25;;;;;;;13.70;1.20;;;;;;;;;;5070717;28;20407;-83
2023/08/14 01:42:57;;;;;;;13.90;1.30;;;;;;;;;;5083666;28;21299;-83
2023/08/14 01:45:24;;;;;;;14.40;1.00;;;;;;;;;;5064279;28;20844;-83
2023/08/14 01:47:52;;;;;;;13.40;1.20;;;;;;;;;;5070093;28;20409;-83
2023/08/14 01:50:20;;;;;;;13.50;1.00;;;;;;;;;;5081564;28;20416;-84
2023/08/14 01:52:48;;;;;;;13.60;1.00;;;;;;;;;;5080101;28;20467;-83
2023/08/14 01:55:15;;;;;;;13.60;1.23;;;;;;;;;;5062223;28;20427;-83
2023/08/14 01:57:41;;;;;;;13.65;1.13;;;;;;;;;;5065086;28;20437;-84
2023/08/14 02:00:10;;;;;;;13.70;1.00;;;;;;;;;;5064824;28;20435;-84
2023/08/14 02:02:39;;;;;;;13.30;0.95;;;;;;;;;;5079044;28;20392;-82
2023/08/14 02:05:06;;;;;;;13.43;1.10;;;;;;;;;;5078162;28;20421;-83
2023/08/14 02:07:33;;;;;;;13.70;1.23;;;;;;;;;;5084642;28;20406;-83
2023/08/14 02:10:00;;;;;;;13.30;0.90;;;;;;;;;;5062579;28;20422;-83
2023/08/14 02:12:30;;;;;;;13.63;1.10;;;;;;;;;;5083629;28;20433;-83
2023/08/14 02:14:56;;;;;;;13.35;1.00;;;;;;;;;;5081650;28;20429;-83
2023/08/14 02:17:27;;;;;;;13.40;1.03;;;;;;;;;;5080421;28;20446;-83
2023/08/14 02:19:54;;;;;;;13.77;1.30;;;;;;;;;;5068103;28;20506;-83
2023/08/14 02:22:21;;;;;;;13.60;1.40;;;;;;;;;;5075582;28;20943;-84
2023/08/14 02:24:47;;;;;;;14.00;1.30;;;;;;;;;;5086067;28;20471;-84
2023/08/14 02:27:14;;;;;;;14.10;1.17;;;;;;;;;;5061097;28;20410;-83
2023/08/14 02:29:41;;;;;;;13.30;0.90;;;;;;;;;;5069054;28;20427;-83
2023/08/14 02:32:08;;;;;;;13.75;1.10;;;;;;;;;;5071113;28;20418;-84
2023/08/14 02:34:43;;;;;;;13.60;1.10;;;;;;;;;;5082294;28;20401;-83
2023/08/14 02:37:10;;;;;;;13.50;1.10;;;;;;;;;;5071015;28;20403;-83
2023/08/14 02:39:37;;;;;;;13.30;0.90;;;;;;;;;;5074804;28;20415;-84
2023/08/14 02:42:05;;;;;;;14.00;1.50;;;;;;;;;;5077911;28;20411;-83
2023/08/14 02:44:32;;;;;;;13.40;1.00;;;;;;;;;;5063839;28;20446;-83
2023/08/14 02:46:59;;;;;;;13.40;1.10;;;;;;;;;;5062046;28;20570;-83
2023/08/14 02:49:26;;;;;;;13.40;1.20;;;;;;;;;;5078973;28;20420;-84
2023/08/14 02:51:54;;;;;;;13.60;1.20;;;;;;;;;;5064467;28;20473;-83
2023/08/14 02:54:21;;;;;;;13.50;1.00;;;;;;;;;;5061149;28;21017;-84
2023/08/14 02:56:48;;;;;;;13.60;1.00;;;;;;;;;;5083507;28;20423;-84
2023/08/14 02:59:19;;;;;;;14.63;1.17;;;;;;;;;;5088087;28;20429;-85
2023/08/14 03:01:46;;;;;;;13.60;1.00;;;;;;;;;;5089507;28;20432;-85
2023/08/14 03:04:13;;;;;;;12.70;1.20;;;;;;;;;;5073968;28;20225;-84
2023/08/14 03:06:39;;;;;;;13.40;1.00;;;;;;;;;;5066255;28;20450;-84
2023/08/14 03:09:07;;;;;;;13.10;1.40;;;;;;;;;;5087594;28;20723;-84
2023/08/14 03:11:34;;;;;;;12.63;1.10;;;;;;;;;;5095648;28;20443;-84
2023/08/14 03:14:01;;;;;;;13.90;1.27;;;;;;;;;;5087519;28;20409;-84
2023/08/14 03:16:27;;;;;;;14.20;1.10;;;;;;;;;;5070887;28;20439;-84
2023/08/14 03:18:54;;;;;;;12.63;1.00;;;;;;;;;;5084678;28;20203;-85
2023/08/14 03:21:21;;;;;;;12.87;1.20;;;;;;;;;;5085659;28;20466;-84
2023/08/14 03:23:48;;;;;;;13.50;1.00;;;;;;;;;;5086756;28;20429;-84
2023/08/14 03:26:16;;;;;;;13.87;1.40;;;;;;;;;;5091508;28;20815;-84
2023/08/14 03:28:43;;;;;;;12.53;1.10;;;;;;;;;;5090229;28;20434;-84
2023/08/14 03:31:11;;;;;;;12.63;1.00;;;;;;;;;;5082705;28;20939;-84
2023/08/14 03:33:37;;;;;;;12.57;1.10;;;;;;;;;;5069209;28;21030;-84
2023/08/14 03:36:07;;;;;;;12.57;1.10;;;;;;;;;;5072443;28;20437;-84
2023/08/14 03:38:34;;;;;;;12.33;0.90;;;;;;;;;;5088073;28;20456;-84
2023/08/14 03:41:01;;;;;;;12.57;0.90;;;;;;;;;;5085953;28;20465;-84
2023/08/14 03:43:29;;;;;;;12.70;1.10;;;;;;;;;;5069798;28;20439;-84
2023/08/14 03:45:56;;;;;;;12.67;1.00;;;;;;;;;;5071455;28;21096;-86
2023/08/14 03:48:22;;;;;;;12.63;1.10;;;;;;;;;;5085393;28;20812;-84
2023/08/14 03:50:50;;;;;;;12.57;1.03;;;;;;;;;;5084562;28;20446;-84
2023/08/14 03:53:16;;;;;;;12.77;1.40;;;;;;;;;;5087854;28;20471;-84
2023/08/14 03:55:43;;;;;;;12.80;1.30;;;;;;;;;;5075180;28;20440;-84
2023/08/14 03:58:10;;;;;;;12.77;1.30;;;;;;;;;;5082443;28;20450;-85
2023/08/14 04:00:38;;;;;;;12.53;1.00;;;;;;;;;;5084589;28;20949;-85
2023/08/14 04:03:05;;;;;;;12.63;1.10;;;;;;;;;;5084582;28;20930;-83
2023/08/14 04:05:35;;;;;;;12.57;1.10;;;;;;;;;;5088353;28;20962;-84
2023/08/14 04:08:02;;;;;;;12.57;1.07;;;;;;;;;;5068594;28;20468;-85
2023/08/14 04:10:28;;;;;;;12.73;1.30;;;;;;;;;;5082619;28;20842;-84
2023/08/14 04:12:55;;;;;;;12.87;1.10;;;;;;;;;;5084516;28;20475;-84
2023/08/14 04:15:24;;;;;;;12.67;1.10;;;;;;;;;;5081216;28;20466;-85
2023/08/14 04:17:53;;;;;;;12.60;1.03;;;;;;;;;;5067114;28;20506;-84
2023/08/14 04:20:20;;;;;;;12.57;1.07;;;;;;;;;;5083615;28;21037;-84
2023/08/14 04:22:46;;;;;;;12.63;1.00;;;;;;;;;;5073587;28;20469;-85
2023/08/14 04:25:15;;;;;;;12.67;1.10;;;;;;;;;;5080709;28;20896;-83
2023/08/14 04:27:41;;;;;;;12.63;1.00;;;;;;;;;;5091637;28;20450;-84
2023/08/14 04:30:08;;;;;;;12.63;1.10;;;;;;;;;;5068642;28;20461;-87
2023/08/14 04:32:35;;;;;;;12.70;1.23;;;;;;;;;;5082139;28;20612;-84
2023/08/14 04:35:04;;;;;;;12.63;1.10;;;;;;;;;;5064210;28;20446;-84
2023/08/14 04:37:31;;;;;;;12.63;1.00;;;;;;;;;;5064086;28;20464;-83
2023/08/14 04:39:58;;;;;;;12.90;1.30;;;;;;;;;;5085049;28;20444;-83
2023/08/14 04:42:25;;;;;;;12.67;1.20;;;;;;;;;;5062037;28;20976;-83
2023/08/14 04:44:52;;;;;;;12.47;1.00;;;;;;;;;;5067197;28;20558;-85
2023/08/14 04:47:19;;;;;;;12.60;1.20;;;;;;;;;;5082199;28;20443;-85
2023/08/14 04:49:45;;;;;;;12.47;0.90;;;;;;;;;;5065753;28;20461;-85
2023/08/14 04:52:14;;;;;;;12.47;0.90;;;;;;;;;;5059849;28;20445;-85
2023/08/14 04:54:41;;;;;;;12.57;0.93;;;;;;;;;;5090101;28;20955;-84
2023/08/14 04:57:09;;;;;;;12.57;1.00;;;;;;;;;;5083204;28;20476;-84
2023/08/14 04:59:35;;;;;;;12.63;0.90;;;;;;;;;;5072235;28;20436;-85
2023/08/14 05:02:03;;;;;;;12.80;1.10;;;;;;;;;;5079153;28;20435;-85
2023/08/14 05:04:30;;;;;;;12.53;1.03;;;;;;;;;;5064922;28;20475;-84
2023/08/14 05:06:58;;;;;;;13.30;1.20;;;;;;;;;;5081428;28;20460;-85
2023/08/14 05:09:27;;;;;;;12.67;1.10;;;;;;;;;;5088716;28;20445;-85
2023/08/14 05:11:56;;;;;;;12.63;1.10;;;;;;;;;;5087034;28;20863;-84
2023/08/14 05:14:22;;;;;;;12.57;1.00;;;;;;;;;;5081187;28;20462;-84
2023/08/14 05:16:50;;;;;;;12.63;1.07;;;;;;;;;;5084627;28;20446;-84
2023/08/14 05:19:17;;;;;;;13.40;1.30;;;;;;;;;;5066499;28;20454;-83
2023/08/14 05:21:45;;;;;;;13.70;1.03;;;;;;;;;;5082243;28;20404;-82
2023/08/14 05:24:12;;;;;;;13.90;1.30;;;;;;;;;;5080579;28;20764;-83
2023/08/14 05:26:40;;;;;;;12.80;1.30;;;;;;;;;;5071447;28;20471;-84
2023/08/14 05:29:07;;;;;;;14.10;1.30;;;;;;;;;;5075874;28;20415;-83
2023/08/14 05:31:34;;;;;;;14.10;1.60;;;;;;;;;;5078295;28;20407;-83
2023/08/14 05:34:01;;;;;;;14.30;1.40;;;;;;;;;;5080480;28;20939;-83
2023/08/14 05:36:28;;;;;;;13.70;1.02;;;;;;;;;;5080519;28;20487;-83
2023/08/14 05:38:55;;;;;;;13.90;1.30;;;;;;;;;;5068383;28;20961;-83
2023/08/14 05:41:22;;;;;;;14.32;1.42;;;;;;;;;;5080176;28;20403;-82
2023/08/14 05:43:50;;;;;;;13.77;1.20;;;;;;;;;;5065063;28;20803;-84
2023/08/14 05:46:19;;;;;;;13.80;1.25;;;;;;;;;;5073608;28;20411;-83
2023/08/14 05:48:46;;;;;;;13.60;1.10;;;;;;;;;;5078336;28;20415;-83
2023/08/14 05:51:12;;;;;;;14.10;1.40;;;;;;;;;;5066033;28;20487;-85
2023/08/14 05:53:39;;;;;;;13.70;1.10;;;;;;;;;;5080534;28;20406;-84
2023/08/14 05:56:06;;;;;;;14.35;1.40;;;;;;;;;;5078973;28;20809;-85
2023/08/14 05:58:34;;;;;;;13.80;1.40;;;;;;;;;;5079899;28;20415;-83
2023/08/14 06:01:02;;;;;;;13.30;1.23;;;;;;;;;;5064516;28;20258;-83
2023/08/14 06:03:29;;;;;;;;;;;;;;;;;;5079981;28;20376;-84
2023/08/14 06:06:09;;;;;;;;;;;;;;;;;;5066302;28;19970;-82
2023/08/14 06:08:35;;;;;;;;;;;;;;;;;;5081315;28;19969;-82
2023/08/14 06:11:02;;;;;;;;;;;;;;;;;;5081617;28;19924;-81
2023/08/14 06:13:28;;;;;;;12.77;1.10;;;;;;;;;;5083808;28;20550;-80
2023/08/14 06:15:55;;;;;;;13.90;1.30;;;;;;;;;;5079976;28;20415;-82
2023/08/14 06:18:24;;;;;;;13.80;1.50;;;;;;;;;;5079120;28;20402;-84
2023/08/14 06:20:51;;;;;;;14.00;1.10;;;;;;;;;;5084823;28;20418;-82
2023/08/14 06:23:18;;;;;;;13.60;1.10;;;;;;;;;;5079850;28;20408;-84
2023/08/14 06:25:46;;;;;;;14.00;1.00;;;;;;;;;;5080199;28;20907;-84
2023/08/14 06:28:13;;;;;;;13.68;1.20;;;;;;;;;;5081024;28;20503;-84
2023/08/14 06:30:40;;;;;;;14.38;2.10;;;;;;;;;;5086615;28;20402;-84
2023/08/14 06:33:07;;;;;;;13.60;1.20;;;;;;;;;;5076243;28;20433;-84
2023/08/14 06:35:35;;;;;;;14.10;1.20;;;;;;;;;;5081380;28;20402;-84
2023/08/14 06:38:03;;;;;;;14.00;1.30;;;;;;;;;;5078672;28;20418;-84
2023/08/14 06:40:30;;;;;;;13.90;1.30;;;;;;;;;;5078685;28;20414;-85
2023/08/14 06:42:57;;;;;;;12.77;1.30;;;;;;;;;;5085640;28;20196;-83
2023/08/14 06:45:24;;;;;;;12.77;1.17;;;;;;;;;;5079678;28;20535;-84
2023/08/14 06:47:52;;;;;;;14.40;1.27;;;;;;;;;;5073118;28;20455;-84
2023/08/14 06:50:19;;;;;;;12.53;1.10;;;;;;;;;;5083188;28;20446;-84
2023/08/14 06:52:47;;;;;;;13.60;1.30;;;;;;;;;;5080315;28;20553;-84
2023/08/14 06:55:14;;;;;;;14.80;1.67;;;;;;;;;;5062429;28;20406;-85
2023/08/14 06:57:41;;;;;;;12.47;1.00;;;;;;;;;;5078748;28;20467;-86
2023/08/14 07:00:13;;;;;;;12.63;1.00;;;;;;;;;;5072296;28;20420;-83
2023/08/14 07:02:43;;;;;;;12.53;1.17;;;;;;;;;;5064061;28;20435;-85
2023/08/14 07:05:10;;;;;;;12.57;1.13;;;;;;;;;;5068056;28;20884;-83
2023/08/14 07:07:37;;;;;;;12.70;1.10;;;;;;;;;;5088149;28;20429;-83
2023/08/14 07:10:07;;;;;;;12.63;1.30;;;;;;;;;;5081417;28;20473;-84
2023/08/14 07:12:34;;;;;;;12.47;1.10;;;;;;;;;;5063735;28;20535;-83
2023/08/14 07:15:00;;;;;;;13.50;1.40;;;;;;;;;;5064705;28;20417;-83
2023/08/14 07:17:27;;;;;;;13.80;1.50;;;;;;;;;;5078173;28;20408;-83
2023/08/14 07:19:54;;;;;;;12.73;1.50;;;;;;;;;;5079500;28;20408;-85
2023/08/14 07:22:20;;;;;;;12.67;1.20;;;;;;;;;;5082424;28;20854;-83
2023/08/14 07:24:47;;;;;;;12.77;1.30;;;;;;;;;;5069415;28;20434;-83
2023/08/14 07:27:16;;;;;;;12.67;1.10;;;;;;;;;;5078070;28;20942;-83
2023/08/14 07:29:43;;;;;;;13.30;1.23;;;;;;;;;;5082860;28;20435;-83
2023/08/14 07:32:11;;;;;;;12.57;1.00;;;;;;;;;;5077115;28;20443;-83
2023/08/14 07:34:37;;;;;;;12.73;1.10;;;;;;;;;;5079226;28;20421;-82
2023/08/14 07:37:04;;;;;;;12.67;1.40;;;;;;;;;;5080060;28;20516;-83
2023/08/14 07:39:31;;;;;;;12.40;1.00;;;;;;;;;;5060568;28;20505;-83
2023/08/14 07:41:57;;;;;;;12.63;1.10;;;;;;;;;;5079918;28;20438;-83
2023/08/14 07:44:25;;;;;;;12.57;1.20;;;;;;;;;;5063387;28;20447;-82
2023/08/14 07:46:52;;;;;;;12.47;1.00;;;;;;;;;;5093183;28;20961;-83
2023/08/14 07:49:20;;;;;;;12.57;1.00;;;;;;;;;;5070627;28;20461;-83
2023/08/14 07:51:46;;;;;;;13.10;1.20;;;;;;;;;;5084304;28;20420;-82
2023/08/14 07:54:13;;;;;;;12.47;1.00;;;;;;;;;;5084593;28;20481;-83
2023/08/14 07:56:42;;;;;;;12.47;1.00;;;;;;;;;;5086012;28;20424;-82
2023/08/14 07:59:14;;;;;;;12.83;1.60;;;;;;;;;;5084750;28;20461;-82
2023/08/14 08:01:43;;;;;;;12.47;1.00;;;;;;;;;;5086204;28;20517;-81
2023/08/14 08:04:10;;;;;;;12.77;1.30;;;;;;;;;;5068210;28;20440;-83
2023/08/14 08:06:52;;;;;;;12.43;0.90;;;;;;;;;;5083324;28;20433;-82
2023/08/14 08:09:18;;;;;;;12.53;1.17;;;;;;;;;;5081868;28;20524;-81
2023/08/14 08:11:45;;;;;;;12.53;1.10;;;;;;;;;;5074323;28;20447;-82
2023/08/14 08:14:12;;;;;;;12.43;1.10;;;;;;;;;;5074184;28;20770;-83
2023/08/14 08:16:39;;;;;;;12.40;1.00;;;;;;;;;;5081571;28;20487;-82
2023/08/14 08:19:07;;;;;;;12.83;1.63;;;;;;;;;;5080966;28;21225;-82
2023/08/14 08:21:34;;;;;;;12.90;1.10;;;;;;;;;;5083761;28;20797;-83
2023/08/14 08:24:01;;;;;;;12.63;1.30;;;;;;;;;;5083133;28;20454;-82
2023/08/14 08:26:28;;;;;;;12.53;1.03;;;;;;;;;;5066038;28;20469;-84
2023/08/14 08:28:56;;;;;;;12.47;1.00;;;;;;;;;;5075074;28;20475;-83
2023/08/14 08:31:22;;;;;;;12.73;1.30;;;;;;;;;;5079783;28;20993;-81
2023/08/14 08:33:49;;;;;;;13.00;1.30;;;;;;;;;;5079865;28;20930;-81
2023/08/14 08:36:18;;;;;;;12.47;1.10;;;;;;;;;;5087633;28;20402;-81
2023/08/14 08:38:45;;;;;;;12.47;1.10;;;;;;;;;;5080868;28;21015;-82
2023/08/14 08:41:12;;;;;;;12.37;0.90;;;;;;;;;;5083478;28;20447;-82
2023/08/14 08:43:39;;;;;;;12.43;1.00;;;;;;;;;;5085732;28;20450;-82
2023/08/14 08:46:08;;;;;;;12.37;0.97;;;;;;;;;;5068294;28;20489;-83
2023/08/14 08:48:37;;;;;;;12.47;1.00;;;;;;;;;;5086515;28;20455;-82
2023/08/14 08:51:06;;;;;;;12.17;0.97;;;;;;;;;;5089558;28;20466;-81
2023/08/14 08:53:37;;;;;;;12.53;1.03;;;;;;;;;;5077816;28;20510;-81
2023/08/14 08:56:04;;;;;;;12.80;1.93;;;;;;;;;;5084640;28;20499;-84
2023/08/14 08:58:32;;;;;;;12.43;1.00;;;;;;;;;;5082916;28;20439;-82
2023/08/14 09:01:03;;;;;;;12.60;1.23;;;;;;;;;;5075275;28;20461;-83
2023/08/14 09:03:31;;;;;;;12.47;1.00;;;;;;;;;;5090765;28;20477;-82
2023/08/14 09:05:58;;;;;;;12.90;1.40;;;;;;;;;;5081221;28;20987;-83
2023/08/14 09:08:29;;;;;;;12.37;0.97;;;;;;;;;;5074084;28;20502;-81
2023/08/14 09:10:57;;;;;;;12.37;0.90;;;;;;;;;;5083914;28;20444;-83
2023/08/14 09:13:25;;;;;;;12.33;0.90;;;;;;;;;;5082720;28;20803;-80
2023/08/14 09:15:59;;;;;;;12.70;1.13;;;;;;;;;;5075697;28;20522;-82
2023/08/14 09:18:26;;;;;;;12.63;0.90;;;;;;;;;;5070173;28;20439;-81
2023/08/14 09:20:53;;;;;;;13.00;1.03;;;;;;;;;;5092443;28;20500;-81
2023/08/14 09:23:20;;;;;;;12.63;1.30;;;;;;;;;;5101919;28;20470;-82
2023/08/14 09:25:49;;;;;;;12.40;0.97;;;;;;;;;;5092085;28;20450;-81
2023/08/14 09:28:17;;;;;;;12.60;1.07;;;;;;;;;;5081202;28;20445;-81
2023/08/14 09:30:44;;;;;;;13.20;1.27;;;;;;;;;;5091349;28;20426;-81
2023/08/14 09:33:11;;;;;;;12.47;1.07;;;;;;;;;;5096062;28;20473;-80
2023/08/14 09:35:38;;;;;;;12.37;1.00;;;;;;;;;;5071425;28;20478;-82
2023/08/14 09:38:05;;;;;;;13.43;0.93;;;;;;;;;;5074434;28;21299;-81
2023/08/14 09:40:32;;;;;;;12.30;0.90;;;;;;;;;;5075657;28;20450;-82
2023/08/14 09:43:00;;;;;;;12.37;0.97;;;;;;;;;;5079899;28;20457;-81
2023/08/14 09:45:29;;;;;;;12.30;0.93;;;;;;;;;;5072940;28;20439;-83
2023/08/14 09:48:00;;;;;;;12.23;0.90;;;;;;;;;;5083093;28;20533;-81
2023/08/14 09:50:27;;;;;;;12.43;1.00;;;;;;;;;;5090942;28;20446;-80
2023/08/14 09:52:55;;;;;;;12.27;0.90;;;;;;;;;;5087901;28;21015;-80
2023/08/14 09:55:22;;;;;;;14.57;1.77;;;;;;;;;;5090535;28;20438;-81
2023/08/14 09:57:49;;;;;;;12.70;1.03;;;;;;;;;;5089915;28;20522;-79
2023/08/14 10:00:17;;;;;;;12.33;0.90;;;;;;;;;;5084888;28;20435;-81
2023/08/14 10:02:46;;;;;;;12.33;0.90;;;;;;;;;;5083677;28;20432;-81
2023/08/14 10:05:14;;;;;;;12.43;1.20;;;;;;;;;;5073504;28;20536;-83
2023/08/14 10:07:43;;;;;;;12.33;0.93;;;;;;;;;;5092222;28;20482;-80
2023/08/14 10:10:13;;;;;;;12.43;1.10;;;;;;;;;;5097636;28;20430;-82
2023/08/14 10:12:45;;;;;;;12.57;1.00;;;;;;;;;;5067556;28;20431;-84
2023/08/14 10:15:14;;;;;;;12.27;1.00;;;;;;;;;;5067357;28;20447;-85
2023/08/14 10:17:43;;;;;;;12.43;1.17;;;;;;;;;;5086014;28;20435;-81
2023/08/14 10:20:15;;;;;;;13.40;1.43;;;;;;;;;;5092964;28;20456;-80
2023/08/14 10:22:43;;;;;;;12.27;0.90;;;;;;;;;;5085245;28;20473;-82
2023/08/14 10:25:11;;;;;;;12.33;0.90;;;;;;;;;;5069244;28;20447;-81
2023/08/14 10:27:38;;;;;;;12.80;1.20;;;;;;;;;;5087658;28;20473;-80
2023/08/14 10:30:05;;;;;;;12.17;0.90;;;;;;;;;;5075508;28;20512;-83
2023/08/14 10:32:32;;;;;;;12.23;0.90;;;;;;;;;;5085779;28;20460;-83
2023/08/14 10:35:02;;;;;;;12.23;1.00;;;;;;;;;;5085129;28;20447;-83
2023/08/14 10:37:40;;;;;;;13.43;1.10;;;;;;;;;;5064964;28;20491;-82
2023/08/14 10:40:13;;;;;;;13.10;1.30;;;;;;;;;;5069263;28;20442;-81
2023/08/14 10:42:42;;;;;;;12.13;0.90;;;;;;;;;;5082827;28;20459;-81
2023/08/14 10:45:09;;;;;;;12.53;1.20;;;;;;;;;;5082798;28;20434;-80
2023/08/14 10:47:37;;;;;;;12.33;0.93;;;;;;;;;;5065646;28;20535;-80
2023/08/14 10:50:11;;;;;;;12.60;1.17;;;;;;;;;;5086572;28;20429;-84
2023/08/14 10:52:41;;;;;;;13.00;1.00;;;;;;;;;;5087188;28;20462;-81
2023/08/14 10:55:13;;;;;;;12.23;1.00;;;;;;;;;;5081178;28;20434;-80
2023/08/14 10:57:40;;;;;;;12.43;1.03;;;;;;;;;;5087127;28;20439;-81
2023/08/14 11:00:20;;;;;;;12.33;1.00;;;;;;;;;;5084326;28;20446;-81
2023/08/14 11:02:51;;;;;;;12.53;1.10;;;;;;;;;;5082966;28;20438;-82
2023/08/14 11:05:18;;;;;;;12.43;1.07;;;;;;;;;;5088006;28;20443;-80
2023/08/14 11:07:59;;;;;;;12.53;1.00;;;;;;;;;;5079951;28;20528;-80
2023/08/14 11:10:28;;;;;;;12.37;1.00;;;;;;;;;;5083094;28;20445;-80
2023/08/14 11:12:56;;;;;;;12.23;0.90;;;;;;;;;;5077823;28;20437;-82
2023/08/14 11:15:25;;;;;;;12.23;0.90;;;;;;;;;;5083010;28;20536;-81
2023/08/14 11:17:52;;;;;;;12.47;1.00;;;;;;;;;;5097923;28;20506;-82
2023/08/14 11:20:20;;;;;;;12.17;0.90;;;;;;;;;;5082537;28;20438;-82
2023/08/14 11:22:48;;;;;;;12.13;0.80;;;;;;;;;;5086984;28;20470;-80
2023/08/14 11:25:17;;;;;;;12.17;0.90;;;;;;;;;;5083765;28;20438;-81
2023/08/14 11:27:48;;;;;;;12.70;1.00;;;;;;;;;;5088872;28;20497;-81
2023/08/14 11:30:14;;;;;;;12.30;0.90;;;;;;;;;;5065792;28;20799;-81
2023/08/14 11:32:44;;;;;;;12.53;1.10;;;;;;;;;;5090222;28;20430;-81
2023/08/14 11:35:11;;;;;;;12.23;0.90;;;;;;;;;;5087311;28;20454;-82
2023/08/14 11:37:38;;;;;;;12.47;1.00;;;;;;;;;;5084339;28;20470;-81
2023/08/14 11:40:06;;;;;;;12.80;1.00;;;;;;;;;;5084192;28;20458;-80
2023/08/14 11:42:35;;;;;;;12.37;1.00;;;;;;;;;;5084066;28;20445;-80
2023/08/14 11:45:03;;;;;;;12.57;1.13;;;;;;;;;;5084515;28;20434;-81
2023/08/14 11:47:32;;;;;;;12.27;0.90;;;;;;;;;;5068193;28;20474;-78
2023/08/14 11:49:59;;;;;;;12.30;0.93;;;;;;;;;;5087443;28;20427;-77
2023/08/14 11:52:27;;;;;;;12.37;1.03;;;;;;;;;;5082341;28;20454;-80
2023/08/14 11:54:54;;;;;;;12.30;1.03;;;;;;;;;;5088196;28;20526;-78
2023/08/14 11:57:22;;;;;;;12.33;1.00;;;;;;;;;;5094010;28;20437;-80
2023/08/14 11:59:51;;;;;;;12.30;1.10;;;;;;;;;;5088217;28;20437;-80
2023/08/14 12:02:18;;;;;;;12.13;0.90;;;;;;;;;;5086035;28;20493;-80
2023/08/14 12:04:45;;;;;;;12.27;1.03;;;;;;;;;;5087518;28;20435;-83
2023/08/14 12:07:17;;;;;;;12.30;1.10;;;;;;;;;;5091296;28;20819;-80
2023/08/14 12:09:43;;;;;;;12.23;1.00;;;;;;;;;;5069774;28;20457;-81
2023/08/14 12:12:10;;;;;;;12.63;1.07;;;;;;;;;;5091093;28;20794;-81
2023/08/14 12:14:38;;;;;;;12.63;1.07;;;;;;;;;;5083711;28;21023;-82
2023/08/14 12:17:10;;;;;;;12.60;1.10;;;;;;;;;;5090328;28;20782;-80
2023/08/14 12:19:47;;;;;;;12.17;0.90;;;;;;;;;;5068634;28;20503;-81
2023/08/14 12:22:15;;;;;;;12.13;0.80;;;;;;;;;;5066141;28;20486;-79
2023/08/14 12:24:43;;;;;;;13.20;1.07;;;;;;;;;;5073587;28;20447;-78
2023/08/14 12:27:15;;;;;;;12.17;0.90;;;;;;;;;;5067370;28;20474;-74
2023/08/14 12:29:43;;;;;;;12.07;0.80;;;;;;;;;;5068058;28;20454;-77
2023/08/14 12:32:11;;;;;;;12.90;1.20;;;;;;;;;;5084649;28;20442;-78
2023/08/14 12:34:38;;;;;;;12.30;0.90;;;;;;;;;;5086001;28;20434;-79
2023/08/14 12:37:05;;;;;;;;;;;;;;;;;;5086178;28;20290;-78
2023/08/14 12:39:32;;;;;;;13.40;1.00;;;;;;;;;;5085202;28;21019;-78
2023/08/14 12:42:01;;;;;;;12.23;0.90;;;;;;;;;;5089340;28;20609;-80
2023/08/14 12:44:28;;;;;;;13.40;1.30;;;;;;;;;;5068469;28;20453;-74
2023/08/14 12:46:58;;;;;;;12.27;0.93;;;;;;;;;;5072770;28;21014;-77
2023/08/14 12:49:27;;;;;;;12.50;1.07;;;;;;;;;;5083835;28;20610;-77
2023/08/14 12:51:54;;;;;;;13.10;1.00;;;;;;;;;;5077458;28;20955;-77
2023/08/14 12:54:21;;;;;;;12.27;0.80;;;;;;;;;;5068121;28;20307;-76
2023/08/14 12:56:49;;;;;;;12.33;1.00;;;;;;;;;;5064911;28;20508;-79
2023/08/14 12:59:17;;;;;;;12.20;0.90;;;;;;;;;;5083635;28;20468;-76
2023/08/14 13:01:50;;;;;;;12.53;1.10;;;;;;;;;;5082961;28;20432;-79
2023/08/14 13:04:17;;;;;;;12.37;0.90;;;;;;;;;;5082059;28;20702;-76
2023/08/14 13:06:45;;;;;;;12.23;0.80;;;;;;;;;;5090819;28;20453;-77
2023/08/14 13:09:14;;;;;;;12.23;0.90;;;;;;;;;;5077258;28;20942;-78
2023/08/14 13:11:40;;;;;;;;;;;;;;;;;;5080867;28;20848;-76
2023/08/14 13:14:08;;;;;;;13.02;0.80;;;;;;;;;;5080748;28;20420;-80
2023/08/14 13:16:34;;;;;;;12.47;1.00;;;;;;;;;;5083473;28;20203;-81
2023/08/14 13:19:02;;;;;;;12.13;0.70;;;;;;;;;;5082510;28;20496;-78
2023/08/14 13:21:29;;;;;;;;;;;;;;;;;;5084755;28;20289;-81
2023/08/14 13:23:59;;;;;;;12.17;1.00;;;;;;;;;;5080219;28;20264;-79
2023/08/14 13:26:26;;;;;;;;;;;;;;;;;;5081522;28;20290;-78
2023/08/14 13:28:55;;;;;;;13.50;1.00;;;;;;;;;;5077788;28;20423;-78
2023/08/14 13:31:23;;;;;;;12.20;0.80;;;;;;;;;;5082280;28;20687;-80
2023/08/14 13:33:50;;;;;;;12.50;1.20;;;;;;;;;;5088079;28;20435;-79
2023/08/14 13:36:17;;;;;;;12.27;1.03;;;;;;;;;;5083449;28;20453;-76
2023/08/14 13:38:43;;;;;;;12.23;1.00;;;;;;;;;;5083546;28;20814;-75
2023/08/14 13:41:11;;;;;;;12.40;1.07;;;;;;;;;;5080673;28;20832;-79
2023/08/14 13:43:38;;;;;;;12.23;0.80;;;;;;;;;;5064685;28;20489;-79
2023/08/14 13:46:05;;;;;;;12.60;0.90;;;;;;;;;;5081774;28;20913;-76
2023/08/14 13:48:32;;;;;;;12.33;0.90;;;;;;;;;;5072159;28;20479;-79
2023/08/14 13:51:00;;;;;;;12.30;0.87;;;;;;;;;;5081701;28;20770;-76
2023/08/14 13:53:27;;;;;;;12.43;0.90;;;;;;;;;;5071204;28;20470;-78
2023/08/14 13:55:53;;;;;;;12.37;0.90;;;;;;;;;;5084352;28;20952;-78
2023/08/14 13:58:23;;;;;;;12.43;1.00;;;;;;;;;;5065191;28;20524;-79
2023/08/14 14:00:50;;;;;;;12.17;0.90;;;;;;;;;;5073064;28;20465;-78
2023/08/14 14:03:16;;;;;;;;;;;;;;;;;;5080795;28;20383;-80
2023/08/14 14:05:43;;;;;;;14.47;1.10;;;;;;;;;;5070084;28;20431;-77
2023/08/14 14:08:10;;;;;;;;;;;;;;;;;;5085424;28;20298;-77
2023/08/14 14:10:36;;;;;;;13.10;0.85;;;;;;;;;;5079816;28;20405;-73
2023/08/14 14:13:07;;;;;;;13.50;1.20;;;;;;;;;;5082868;28;20467;-78
2023/08/14 14:15:36;;;;;;;13.30;0.98;;;;;;;;;;5082966;28;20412;-78
2023/08/14 14:18:07;;;;;;;13.10;0.93;;;;;;;;;;5082515;28;20413;-80
2023/08/14 14:20:34;;;;;;;13.20;0.80;;;;;;;;;;5071529;28;20443;-77
2023/08/14 14:23:01;;;;;;;12.48;0.93;;;;;;;;;;5080985;28;20456;-78
2023/08/14 14:25:27;;;;;;;12.33;0.90;;;;;;;;;;5063567;28;20265;-75
2023/08/14 14:27:55;;;;;;;12.57;1.20;;;;;;;;;;5079685;28;20467;-76
2023/08/14 14:30:22;;;;;;;13.20;1.10;;;;;;;;;;5070956;28;20410;-78
2023/08/14 14:32:48;;;;;;;;;;;;;;;;;;5075175;28;20353;-77
2023/08/14 14:35:17;;;;;;;12.40;0.90;;;;;;;;;;5081251;28;20213;-77
2023/08/14 14:37:43;;;;;;;13.20;0.90;;;;;;;;;;5061954;28;20908;-76